Time;durP1;ratioP1;P1;durP2;ratioP2;P2;SDS_P1;SDS_P2;PMS_P1;PMS_P2;Temp;Humidity;BMP_temperature;BMP_pressure;BME280_temperature;BME280_humidity;BME280_pressure;Samples;Min_cycle;Max_cycle;Signal;HPM_P1;HPM_P2
2023/01/20 06:47:10;;;;;;;;;5.50;4.00;;;;;17.25;45.05;101415.88;5110112;27;45818;-73
2023/01/20 06:49:35;;;;;;;;;3.25;3.25;;;;;17.70;45.86;101403.72;5087609;27;45548;-74
2023/01/20 06:52:01;;;;;;;;;6.75;4.75;;;;;18.31;45.75;101416.22;5094385;27;45440;-73
2023/01/20 06:54:26;;;;;;;;;2.25;2.25;;;;;18.96;45.82;101415.72;5097754;27;45531;-74
2023/01/20 06:56:51;;;;;;;;;3.25;3.25;;;;;19.62;45.89;101419.50;5109159;27;46451;-73
2023/01/20 06:59:17;;;;;;;;;4.50;3.00;;;;;20.20;45.56;101421.06;5091424;27;45454;-74
2023/01/20 07:01:42;;;;;;;;;5.00;4.75;;;;;20.76;45.38;101428.94;5106078;27;45718;-74
2023/01/20 07:04:11;;;;;;;;;4.50;4.50;;;;;21.24;45.28;101424.78;5090864;27;45498;-75
2023/01/20 07:06:38;;;;;;;;;4.50;3.25;;;;;21.71;44.74;101426.03;5098499;27;46717;-74
2023/01/20 07:09:07;;;;;;;;;6.50;5.00;;;;;22.14;44.54;101423.13;5097971;27;45543;-76
2023/01/20 07:11:34;;;;;;;;;3.33;2.67;;;;;22.51;44.25;101430.47;5095876;27;46009;-75
2023/01/20 07:13:59;;;;;;;;;4.33;4.33;;;;;22.82;44.02;101435.72;5104871;27;46074;-75
2023/01/20 07:16:24;;;;;;;;;3.00;3.00;;;;;23.10;43.38;101443.84;5098108;27;45538;-74
2023/01/20 07:18:51;;;;;;;;;2.67;2.67;;;;;23.34;43.08;101447.91;5106880;27;45794;-74
2023/01/20 07:21:17;;;;;;;;;4.00;2.67;;;;;23.54;42.86;101443.25;5092656;27;45543;-74
2023/01/20 07:23:42;;;;;;;;;6.00;5.33;;;;;23.67;42.97;101448.28;5087659;27;45433;-74
2023/01/20 07:26:16;;;;;;;;;4.00;2.33;;;;;23.90;42.63;101456.00;5065089;28;46386;-74
2023/01/20 07:28:41;;;;;;;;;7.00;5.00;;;;;24.03;42.44;101452.06;5070721;28;45493;-74
2023/01/20 07:31:13;;;;;;;;;6.00;5.67;;;;;24.17;42.18;101461.53;5070792;28;45549;-76
2023/01/20 07:33:38;;;;;;;;;7.67;5.00;;;;;24.28;42.03;101453.16;5069525;28;45445;-76
2023/01/20 07:36:05;;;;;;;;;4.00;3.33;;;;;24.31;41.74;101452.84;5070722;28;45767;-75
2023/01/20 07:38:31;;;;;;;;;4.00;4.00;;;;;24.44;41.66;101468.72;5052545;28;45524;-76
2023/01/20 07:40:58;;;;;;;;;5.33;5.33;;;;;24.54;41.44;101478.63;5069982;28;45558;-76
2023/01/20 07:43:24;;;;;;;;;5.33;3.67;;;;;24.61;41.05;101483.25;5072735;27;45552;-80
2023/01/20 07:45:49;;;;;;;;;7.00;5.00;;;;;24.70;41.33;101494.19;5082089;27;45998;-81
2023/01/20 07:48:14;;;;;;;;;2.67;2.33;;;;;24.80;41.11;101491.38;5067533;27;45455;-78
2023/01/20 07:50:39;;;;;;;;;3.00;3.00;;;;;24.88;40.87;101488.75;5074576;27;46726;-73
2023/01/20 07:53:05;;;;;;;;;5.33;5.00;;;;;24.95;40.95;101502.53;5051704;27;45297;-75
2023/01/20 07:55:32;;;;;;;;;6.00;4.33;;;;;25.05;40.76;101505.97;5070687;28;45578;-73
2023/01/20 07:57:57;;;;;;;;;4.33;4.33;;;;;25.12;40.27;101500.75;5058942;28;45432;-75
2023/01/20 08:00:23;;;;;;;;;6.67;4.00;;;;;25.17;40.38;101511.16;5038816;28;45443;-75
2023/01/20 08:02:49;;;;;;;;;5.00;5.00;;;;;25.23;40.67;101502.34;5056602;28;45464;-75
2023/01/20 08:05:14;;;;;;;;;4.00;4.00;;;;;25.31;40.05;101501.53;5056964;28;45631;-75
2023/01/20 08:07:39;;;;;;;;;7.00;4.00;;;;;25.39;40.19;101499.69;5056666;28;45633;-75
2023/01/20 08:10:05;;;;;;;;;4.33;4.00;;;;;25.42;39.98;101503.13;5038941;28;45390;-75
2023/01/20 08:12:30;;;;;;;;;4.67;4.33;;;;;25.44;39.52;101496.50;5056777;28;45555;-75
2023/01/20 08:14:56;;;;;;;;;7.00;5.67;;;;;25.43;39.76;101483.94;5055499;28;46651;-75
2023/01/20 08:17:21;;;;;;;;;3.33;3.00;;;;;25.40;39.48;101492.41;5056630;28;45496;-74
2023/01/20 08:19:46;;;;;;;;;4.00;4.00;;;;;25.42;39.84;101500.41;5057426;28;45607;-74
2023/01/20 08:22:12;;;;;;;;;4.00;4.00;;;;;25.42;39.88;101503.13;5048275;28;46314;-74
2023/01/20 08:24:37;;;;;;;;;4.67;4.67;;;;;25.42;39.50;101503.13;5045392;28;50425;-72
2023/01/20 08:27:02;;;;;;;;;6.67;6.67;;;;;25.52;39.21;101499.28;5055092;28;45844;-72
2023/01/20 08:29:30;;;;;;;;;6.00;4.33;;;;;25.59;39.14;101506.78;5056731;28;45927;-73
2023/01/20 08:31:58;;;;;;;;;6.00;5.00;;;;;25.61;39.43;101508.34;5052910;28;45615;-75
2023/01/20 08:34:23;;;;;;;;;8.00;6.00;;;;;25.65;39.32;101517.00;5056233;28;45991;-74
2023/01/20 08:36:51;;;;;;;;;5.33;4.00;;;;;25.62;38.93;101503.72;5046864;28;45230;-71
2023/01/20 08:39:17;;;;;;;;;6.33;4.67;;;;;25.67;39.20;101517.72;5061787;28;45393;-72
2023/01/20 08:41:44;;;;;;;;;7.33;5.00;;;;;25.64;38.86;101513.44;5054408;28;45452;-74
2023/01/20 08:44:10;;;;;;;;;6.00;4.33;;;;;25.67;38.88;101523.16;5056529;28;46080;-75
2023/01/20 08:46:36;;;;;;;;;6.00;4.00;;;;;25.64;38.65;101527.03;5051706;28;45405;-74
2023/01/20 08:49:06;;;;;;;;;6.33;6.00;;;;;25.68;38.84;101532.13;5056622;28;45398;-75
2023/01/20 08:51:32;;;;;;;;;6.67;6.67;;;;;25.63;38.50;101517.16;5055653;28;45643;-77
2023/01/20 08:53:58;;;;;;;;;10.67;8.00;;;;;25.74;39.18;101532.34;5051944;28;46157;-77
2023/01/20 08:56:23;;;;;;;;;10.67;8.00;;;;;25.77;38.72;101528.44;5055931;28;45845;-81
2023/01/20 08:58:49;;;;;;;;;8.33;6.33;;;;;25.82;38.34;101536.94;5046415;28;45507;-81
2023/01/20 09:01:18;;;;;;;;;8.33;8.33;;;;;25.85;38.34;101535.75;5055150;28;45802;-80
2023/01/20 09:03:44;;;;;;;;;13.67;10.67;;;;;25.89;38.15;101545.28;5040592;28;47157;-83
2023/01/20 09:06:10;;;;;;;;;19.33;16.00;;;;;25.87;38.60;101545.44;5054121;28;46884;-80
2023/01/20 09:08:36;;;;;;;;;21.00;19.00;;;;;25.87;38.03;101548.16;5058991;28;45504;-76
2023/01/20 09:11:13;;;;;;;;;20.67;16.00;;;;;25.83;38.26;101544.06;5051991;28;45557;-74
2023/01/20 09:13:39;;;;;;;;;17.00;14.67;;;;;25.89;38.05;101556.16;5051956;28;45652;-78
2023/01/20 09:16:04;;;;;;;;;19.67;15.00;;;;;25.88;38.01;101544.44;5058965;28;45486;-75
2023/01/20 09:18:31;;;;;;;;;24.67;22.00;;;;;25.89;38.01;101562.47;5055507;28;45575;-75
2023/01/20 09:20:58;;;;;;;;;22.33;20.00;;;;;25.89;38.19;101553.44;5038895;28;45826;-75
2023/01/20 09:23:24;;;;;;;;;24.67;16.67;;;;;25.87;37.64;101548.16;5053768;28;45506;-75
2023/01/20 09:25:49;;;;;;;;;18.33;14.00;;;;;25.87;38.11;101536.47;5054335;28;45387;-77
2023/01/20 09:28:14;;;;;;;;;15.67;14.00;;;;;25.88;37.75;101533.56;5051936;28;45475;-75
2023/01/20 09:30:41;;;;;;;;;16.33;16.33;;;;;25.91;38.24;101546.84;5042206;28;45489;-78
2023/01/20 09:33:08;;;;;;;;;21.00;16.00;;;;;25.95;38.23;101550.06;5044515;28;45407;-77
2023/01/20 09:35:33;;;;;;;;;22.67;17.67;;;;;25.94;37.71;101561.97;5051276;28;45527;-77
2023/01/20 09:44:27;;;;;;;;;16.00;13.67;;;;;26.00;37.47;101568.63;5048648;28;45479;-76
2023/01/20 09:47:19;;;;;;;;;22.00;18.00;;;;;26.01;37.73;101570.31;5036389;28;45821;-79
2023/01/20 09:53:26;;;;;;;;;22.00;17.67;;;;;26.03;37.52;101571.84;5055075;28;45527;-76
2023/01/20 09:55:54;;;;;;;;;31.67;16.67;;;;;26.07;37.65;101579.69;5045764;28;46504;-77
2023/01/20 09:58:28;;;;;;;;;20.00;17.33;;;;;26.08;37.39;101584.13;5036240;28;45863;-75
2023/01/20 10:01:23;;;;;;;;;21.67;17.00;;;;;26.12;37.64;101588.22;5046638;28;45473;-75
2023/01/20 10:03:51;;;;;;;;;22.00;16.67;;;;;26.13;37.06;101584.47;5042060;28;45491;-75
2023/01/20 10:06:25;;;;;;;;;20.67;17.67;;;;;26.13;37.33;101582.59;5040420;28;45537;-75
2023/01/20 10:09:00;;;;;;;;;23.00;17.33;;;;;26.13;36.97;101582.59;5052642;28;45468;-76
2023/01/20 10:11:30;;;;;;;;;15.67;13.67;;;;;26.11;37.17;101589.22;5046367;28;45429;-76
2023/01/20 10:14:06;;;;;;;;;16.33;14.33;;;;;26.12;36.84;101585.50;5042400;28;45648;-74
2023/01/20 10:16:58;;;;;;;;;22.00;18.00;;;;;26.13;36.80;101588.03;5052782;28;46199;-75
2023/01/20 10:19:45;;;;;;;;;15.67;15.33;;;;;26.18;36.85;101591.13;5042356;28;45461;-75
2023/01/20 10:22:17;;;;;;;;;20.67;17.67;;;;;26.21;36.93;101589.94;5039766;28;45742;-75
2023/01/20 10:24:46;;;;;;;;;16.67;15.00;;;;;26.26;37.25;101590.31;5029892;28;45454;-76
2023/01/20 10:27:12;;;;;;;;;21.33;15.67;;;;;26.30;36.97;101591.69;5050569;28;46609;-78
2023/01/20 10:29:43;;;;;;;;;19.33;16.33;;;;;26.34;36.74;101603.09;5053435;28;46322;-76
2023/01/20 10:32:24;;;;;;;;;21.33;20.67;;;;;26.37;36.94;101599.19;5053070;28;45546;-79
2023/01/20 10:34:53;;;;;;;;;22.00;20.33;;;;;26.36;36.56;101597.47;5053296;28;45397;-78
2023/01/20 10:37:18;;;;;;;;;24.67;21.67;;;;;26.38;36.78;101598.16;5052442;28;46079;-76
2023/01/20 10:39:51;;;;;;;;;25.67;19.00;;;;;26.40;36.78;101599.69;5052495;28;45489;-78
2023/01/20 10:42:18;;;;;;;;;20.67;19.00;;;;;26.43;36.42;101598.50;5051943;28;45621;-77
2023/01/20 10:44:45;;;;;;;;;29.33;27.33;;;;;26.42;37.13;101596.81;5043169;28;45648;-78
2023/01/20 10:47:23;;;;;;;;;28.67;23.67;;;;;26.42;36.73;101602.25;5039888;28;45460;-79
2023/01/20 10:50:13;;;;;;;;;37.00;28.00;;;;;26.39;36.98;101594.41;5035756;28;45742;-75
2023/01/20 10:53:03;;;;;;;;;28.33;24.33;;;;;26.33;36.66;101595.94;5050993;28;46074;-73
2023/01/20 10:55:40;;;;;;;;;31.67;23.67;;;;;26.35;36.81;101593.91;5041920;28;45275;-71
2023/01/20 10:58:20;;;;;;;;;30.33;23.67;;;;;26.34;36.45;101594.06;5060541;28;46512;-71
2023/01/20 11:00:45;;;;;;;;;37.67;25.00;;;;;26.36;36.67;101592.88;5052232;28;45395;-73
2023/01/20 11:03:17;;;;;;;;;30.33;23.67;;;;;26.39;36.86;101586.25;5053237;28;45521;-72
2023/01/20 11:05:45;;;;;;;;;32.00;21.33;;;;;26.42;36.64;101589.50;5046030;28;45515;-72
2023/01/20 11:08:24;;;;;;;;;25.67;23.67;;;;;26.47;36.83;101591.69;5056107;28;48027;-72
2023/01/20 11:10:54;;;;;;;;;27.00;21.33;;;;;26.50;36.34;101587.78;5052935;28;45460;-75
2023/01/20 11:13:20;;;;;;;;;22.33;20.33;;;;;26.56;37.04;101585.25;5053801;28;45465;-72
2023/01/20 11:15:49;;;;;;;;;130.00;83.75;;;;;26.56;36.73;101581.66;5039375;28;45482;-72
2023/01/20 11:18:14;;;;;;;;;108.50;70.50;;;;;26.46;36.20;101584.56;5041561;28;45915;-72
2023/01/20 11:20:51;;;;;;;;;88.25;56.50;;;;;26.26;35.58;101579.44;5036156;28;45393;-71
2023/01/20 11:23:33;;;;;;;;;82.75;55.50;;;;;26.02;35.25;101581.03;5046733;28;45389;-73
2023/01/20 11:26:11;;;;;;;;;81.75;55.25;;;;;25.87;35.29;101582.69;5046638;28;45829;-73
2023/01/20 11:29:04;;;;;;;;;77.75;52.25;;;;;25.72;35.59;101583.31;5042348;28;45592;-73
2023/01/20 11:31:41;;;;;;;;;79.00;54.00;;;;;25.72;35.35;101594.19;5042683;28;45544;-73
2023/01/20 11:34:25;;;;;;;;;80.75;56.50;;;;;25.69;35.58;101594.50;5051366;28;45537;-74
2023/01/20 11:37:17;;;;;;;;;78.25;52.25;;;;;25.66;35.40;101600.25;5032167;28;45697;-73
2023/01/20 11:39:56;;;;;;;;;80.25;54.50;;;;;25.58;35.56;101594.81;5044802;28;45652;-73
2023/01/20 11:42:40;;;;;;;;;77.00;52.25;;;;;25.59;35.63;101596.50;5049609;28;45531;-72
2023/01/20 11:45:21;;;;;;;;;69.75;49.50;;;;;25.56;35.31;101602.25;5030507;28;45603;-71
2023/01/20 11:48:03;;;;;;;;;70.25;48.75;;;;;25.56;35.29;101610.41;5054620;28;45452;-70
2023/01/20 11:50:37;;;;;;;;;68.25;48.00;;;;;25.54;35.22;101594.22;5045968;28;45738;-76
2023/01/20 11:53:24;;;;;;;;;74.25;48.25;;;;;25.58;35.49;101597.50;5044515;28;45487;-77
2023/01/20 11:55:52;;;;;;;;;71.75;47.25;;;;;25.59;35.24;101605.47;5056698;28;45445;-76
2023/01/20 11:58:31;;;;;;;;;65.50;45.75;;;;;25.58;35.43;101597.50;5045877;28;45813;-76
2023/01/20 12:01:15;;;;;;;;;64.75;43.00;;;;;25.55;35.71;101595.06;5045375;28;45641;-75
2023/01/20 12:04:05;;;;;;;;;65.00;45.25;;;;;25.52;35.34;101593.53;5056759;28;45476;-76
2023/01/20 12:07:08;;;;;;;;;62.75;44.50;;;;;25.49;35.41;101581.13;5054121;28;45560;-75
2023/01/20 12:09:37;;;;;;;;;57.75;42.25;;;;;25.45;35.39;101582.47;5039275;28;45780;-76
2023/01/20 12:12:38;;;;;;;;;58.50;42.00;;;;;25.43;35.39;101581.78;5038430;28;47794;-75
2023/01/20 12:15:04;;;;;;;;;62.25;42.25;;;;;25.40;35.18;101582.09;4992663;28;45488;-76
2023/01/20 12:18:28;;;;;;;;;56.50;41.50;;;;;25.36;35.24;101581.56;4991503;28;45542;-75
2023/01/20 12:21:06;;;;;;;;;46.00;35.25;;;;;25.33;35.35;101570.16;4945129;28;45715;-75
2023/01/20 12:23:32;;;;;;;;;59.50;36.75;;;;;25.31;34.95;101578.47;4961474;28;45489;-75
2023/01/20 12:26:01;;;;;;;;;50.25;35.25;;;;;25.28;35.18;101578.78;4960012;28;45511;-75
2023/01/20 12:28:38;;;;;;;;;47.50;35.75;;;;;25.27;35.00;101582.53;4967093;28;45393;-75
2023/01/20 12:31:08;;;;;;;;;54.50;36.25;;;;;25.23;35.11;101576.56;4954675;28;45557;-75
2023/01/20 12:33:48;;;;;;;;;49.25;37.00;;;;;25.21;35.12;101578.56;4941357;28;47454;-74
2023/01/20 12:36:48;;;;;;;;;48.25;36.00;;;;;25.18;35.22;101583.50;4956741;28;45731;-75
2023/01/20 12:39:27;;;;;;;;;45.00;33.00;;;;;25.16;35.12;101582.78;4962401;28;45482;-73
2023/01/20 12:41:58;;;;;;;;;44.25;29.50;;;;;25.16;35.10;101574.63;4954925;28;45929;-77
2023/01/20 12:44:44;;;;;;;;;46.75;33.25;;;;;25.15;34.96;101576.50;4956234;28;45457;-78
2023/01/20 12:47:37;;;;;;;;;47.00;34.00;;;;;25.14;34.99;101563.94;4963066;28;45371;-79
2023/01/20 12:50:24;;;;;;;;;41.50;31.75;;;;;25.25;35.11;101565.53;4958028;28;45326;-76
2023/01/20 12:53:10;;;;;;;;;40.00;31.00;;;;;25.34;34.82;101570.00;5004827;28;45567;-77
2023/01/20 12:56:07;;;;;;;;;45.00;31.50;;;;;25.44;35.43;101571.75;5052249;28;46375;-73
2023/01/20 12:58:56;;;;;;;;;32.67;23.67;;;;;25.54;35.11;101558.88;5050447;28;45384;-76
2023/01/20 13:01:43;;;;;;;;;41.00;27.33;;;;;25.67;35.14;101571.22;5041690;28;45359;-77
2023/01/20 13:04:42;;;;;;;;;31.67;28.00;;;;;25.78;35.43;101568.19;5056300;28;45289;-76
2023/01/20 13:07:36;;;;;;;;;39.00;31.33;;;;;25.85;35.26;101563.81;5053524;28;45432;-76
2023/01/20 13:10:25;;;;;;;;;35.33;27.67;;;;;25.91;34.98;101559.56;5049570;28;45747;-76
2023/01/20 13:13:08;;;;;;;;;34.00;25.67;;;;;25.98;34.75;101557.03;5056634;28;45442;-74
2023/01/20 13:15:57;;;;;;;;;30.33;23.00;;;;;25.98;34.76;101557.03;5042519;28;45508;-72
2023/01/20 13:18:32;;;;;;;;;43.67;25.67;;;;;26.00;34.80;101558.56;5043000;28;45492;-73
2023/01/20 13:20:58;;;;;;;;;31.00;27.33;;;;;25.99;34.74;101556.88;5055803;28;45397;-74
2023/01/20 13:23:30;;;;;;;;;39.33;27.00;;;;;26.01;34.67;101554.00;5037142;28;45654;-76
2023/01/20 13:25:59;;;;;;;;;35.67;25.67;;;;;26.03;35.28;101557.38;5046256;28;45355;-76
2023/01/20 13:28:26;;;;;;;;;29.67;26.00;;;;;26.04;35.13;101550.97;5056651;28;45421;-73
2023/01/20 13:30:57;;;;;;;;;37.00;26.00;;;;;26.05;34.70;101556.25;5053417;28;45515;-73
2023/01/20 13:33:41;;;;;;;;;31.67;27.00;;;;;26.08;35.11;101552.34;5047343;28;45396;-71
2023/01/20 13:36:20;;;;;;;;;36.67;26.00;;;;;26.12;34.88;101550.94;5060971;28;45663;-74
2023/01/20 13:38:48;;;;;;;;;38.00;27.33;;;;;26.15;34.89;101549.75;5045135;28;45589;-80
2023/01/20 13:41:46;;;;;;;;;42.33;30.33;;;;;26.19;35.27;101551.13;5055360;28;45444;-77
2023/01/20 13:44:37;;;;;;;;;34.33;27.33;;;;;26.23;35.12;101548.97;5040035;28;45476;-76
2023/01/20 13:47:07;;;;;;;;;38.33;28.67;;;;;26.26;35.22;101543.19;5047218;28;45451;-76
2023/01/20 13:49:50;;;;;;;;;31.67;25.00;;;;;26.30;35.18;101548.16;5060533;28;46366;-76
2023/01/20 13:52:53;;;;;;;;;45.33;28.33;;;;;26.35;35.29;101552.25;5043557;28;45311;-77
2023/01/20 13:55:40;;;;;;;;;27.00;22.67;;;;;26.38;34.71;101549.16;5055503;28;45505;-78
2023/01/20 13:58:18;;;;;;;;;34.00;22.67;;;;;26.39;34.66;101548.13;5057441;28;45535;-77
2023/01/20 14:00:44;;;;;;;;;31.67;24.33;;;;;26.39;34.63;101543.56;5046696;28;45451;-73
2023/01/20 14:03:32;;;;;;;;;28.33;24.33;;;;;26.36;35.23;101541.16;5054998;28;45751;-74
2023/01/20 14:06:10;;;;;;;;;27.67;25.00;;;;;26.37;34.87;101551.06;5054156;28;45833;-74
2023/01/20 14:08:46;;;;;;;;;32.33;22.33;;;;;26.38;34.74;101544.59;5056824;28;45616;-73
2023/01/20 14:11:12;;;;;;;;;29.67;24.33;;;;;26.40;35.26;101549.88;5052630;28;45394;-74
2023/01/20 14:13:39;;;;;;;;;25.67;20.67;;;;;26.42;34.93;101548.69;5045093;28;45702;-74
2023/01/20 14:16:05;;;;;;;;;124.75;93.75;;;;;26.43;35.31;101544.06;5060027;28;45404;-79
2023/01/20 14:18:30;;;;;;;;;119.75;97.50;;;;;26.46;34.64;101540.16;5060350;28;45556;-75
2023/01/20 14:20:55;;;;;;;;;146.50;115.00;;;;;26.49;34.76;101554.28;5048084;28;45840;-76
2023/01/20 14:23:25;;;;;;;;;153.67;114.00;;;;;26.53;34.67;101557.53;5054150;28;45641;-76
2023/01/20 14:26:23;;;;;;;;;158.33;118.00;;;;;26.55;35.24;101556.34;5049413;28;45771;-76
2023/01/20 14:28:50;;;;;;;;;139.33;97.33;;;;;26.58;35.02;101568.75;5038564;28;45336;-77
2023/01/20 14:31:20;;;;;;;;;157.33;114.67;;;;;26.58;35.00;101558.69;5043639;28;45452;-77
2023/01/20 14:34:14;;;;;;;;;180.67;127.67;;;;;26.58;34.40;101555.13;5056588;28;45361;-76
2023/01/20 14:36:40;;;;;;;;;162.00;128.67;;;;;26.53;34.81;101557.53;5035818;28;45480;-76
2023/01/20 14:39:18;;;;;;;;;156.33;126.33;;;;;26.50;34.58;101569.59;5053906;28;45620;-76
2023/01/20 14:41:52;;;;;;;;;176.00;128.67;;;;;26.51;35.09;101567.72;5046205;28;48044;-76
2023/01/20 14:44:20;;;;;;;;;148.00;103.67;;;;;26.35;34.68;101544.91;5048046;28;45231;-76
2023/01/20 14:46:48;;;;;;;;;150.67;121.67;;;;;26.39;34.59;101556.31;5046037;28;45405;-77
2023/01/20 14:49:16;;;;;;;;;151.67;117.33;;;;;26.36;34.67;101552.06;5054119;28;45809;-75
2023/01/20 14:51:44;;;;;;;;;147.00;108.00;;;;;26.28;34.74;101547.44;5053971;28;46146;-77
2023/01/20 14:54:28;;;;;;;;;88.00;54.33;;;;;26.35;35.01;101560.41;5044134;28;45528;-76
2023/01/20 14:56:54;;;;;;;;;155.25;111.25;;;;;26.34;34.94;101566.84;5047037;28;45422;-76
2023/01/20 14:59:21;;;;;;;;;119.67;81.33;;;;;26.15;34.62;101530.72;5058529;28;45511;-75
2023/01/20 15:01:55;;;;;;;;;125.75;100.00;;;;;26.34;34.76;101553.22;5041324;28;45513;-75
2023/01/20 15:04:21;;;;;;;;;144.00;105.50;;;;;26.35;34.50;101557.69;5053791;28;45763;-75
2023/01/20 15:06:54;;;;;;;;;138.50;106.50;;;;;26.38;35.11;101565.50;5055029;28;45735;-78
2023/01/20 15:09:29;;;;;;;;;137.25;103.25;;;;;26.40;34.46;101572.47;5067941;28;45783;-78
2023/01/20 15:12:34;;;;;;;;;130.00;91.75;;;;;26.47;34.71;101571.78;5060364;28;46570;-76
2023/01/20 15:15:09;;;;;;;;;108.25;89.00;;;;;26.47;34.88;101569.06;5047551;28;45400;-78
2023/01/20 15:17:35;;;;;;;;;112.75;88.00;;;;;26.48;34.42;101577.06;5057469;28;45635;-78
2023/01/20 15:20:00;;;;;;;;;103.50;78.50;;;;;26.49;34.34;101575.22;5052969;28;45495;-77
2023/01/20 15:22:26;;;;;;;;;107.75;87.00;;;;;26.48;34.73;101570.78;5057269;28;45480;-75
2023/01/20 15:24:53;;;;;;;;;112.50;85.50;;;;;26.41;34.09;101568.72;5065087;28;45485;-79
2023/01/20 15:27:32;;;;;;;;;106.25;87.75;;;;;26.41;34.68;101570.59;5057356;28;45614;-76
2023/01/20 15:30:14;;;;;;;;;104.50;80.75;;;;;26.40;34.30;101577.91;5046712;28;45697;-77
2023/01/20 15:32:40;;;;;;;;;109.25;83.75;;;;;26.37;34.23;101566.53;5053130;28;47309;-77
2023/01/20 15:35:05;;;;;;;;;91.00;71.00;;;;;26.44;34.19;101575.69;5066937;28;45527;-79
2023/01/20 15:37:31;;;;;;;;;103.50;76.75;;;;;26.43;34.76;101572.13;5057877;28;45342;-76
2023/01/20 15:39:57;;;;;;;;;97.25;76.25;;;;;26.51;34.93;101575.88;5054133;28;45513;-77
2023/01/20 15:42:23;;;;;;;;;91.75;71.75;;;;;26.58;34.62;101587.81;5056718;28;45790;-77
2023/01/20 15:44:48;;;;;;;;;99.75;76.75;;;;;26.60;34.32;101584.91;5057728;28;45408;-76
2023/01/20 15:47:16;;;;;;;;;95.25;70.00;;;;;26.62;34.79;101585.59;5058478;28;45663;-80
2023/01/20 15:49:41;;;;;;;;;93.75;73.00;;;;;26.55;34.01;101589.00;5047784;28;45435;-71
2023/01/20 15:52:09;;;;;;;;;83.75;67.25;;;;;26.53;34.05;101584.75;5056550;28;48197;-76
2023/01/20 15:54:34;;;;;;;;;85.00;67.50;;;;;26.43;34.41;101583.03;5055180;28;45566;-72
2023/01/20 15:56:59;;;;;;;;;86.00;69.00;;;;;26.49;34.59;101591.53;5055341;28;45588;-74
2023/01/20 15:59:28;;;;;;;;;73.00;53.75;;;;;26.51;34.55;101597.66;5056867;28;45467;-73
2023/01/20 16:01:54;;;;;;;;;60.75;39.50;;;;;26.56;34.28;101596.13;5059792;27;46606;-71
2023/01/20 16:04:20;;;;;;;;;81.25;63.50;;;;;26.62;34.20;101608.22;5046706;28;45432;-71
2023/01/20 16:06:46;;;;;;;;;77.50;64.50;;;;;26.69;34.14;101602.97;5056125;28;45533;-71
2023/01/20 16:09:20;;;;;;;;;78.75;60.25;;;;;26.77;34.35;101610.28;5033176;28;45412;-71
2023/01/20 16:11:46;;;;;;;;;77.00;57.75;;;;;26.84;34.37;101608.56;5056102;28;47482;-72
2023/01/20 16:14:11;;;;;;;;;80.25;63.00;;;;;26.90;34.13;101599.75;5053893;28;45496;-70
2023/01/20 16:16:37;;;;;;;;;76.25;55.75;;;;;27.00;34.70;101606.88;5039380;28;46737;-72
2023/01/20 16:19:03;;;;;;;;;71.50;52.25;;;;;27.09;34.81;101609.44;5049267;28;45496;-71
2023/01/20 16:21:29;;;;;;;;;71.00;50.00;;;;;27.18;34.98;101612.16;5050105;28;45477;-73
2023/01/20 16:23:54;;;;;;;;;72.25;52.50;;;;;27.23;34.06;101607.88;5047037;28;45569;-72
2023/01/20 16:26:28;;;;;;;;;69.25;52.00;;;;;27.28;34.38;101609.25;5056722;28;45323;-70
2023/01/20 16:28:56;;;;;;;;;54.50;38.75;;;;;27.34;34.11;101614.03;5047368;28;45377;-74
2023/01/20 16:31:23;;;;;;;;;64.50;47.25;;;;;27.38;34.17;101612.63;5053318;28;47235;-74
2023/01/20 16:33:48;;;;;;;;;60.75;43.00;;;;;27.39;34.11;101610.75;5053424;28;45384;-74
2023/01/20 16:36:17;;;;;;;;;62.25;46.50;;;;;27.42;34.20;101615.88;5054249;28;45435;-73
2023/01/20 16:38:43;;;;;;;;;65.00;49.00;;;;;27.43;34.72;101626.56;5050543;28;45977;-72
2023/01/20 16:41:15;;;;;;;;;64.00;47.00;;;;;27.45;34.59;101629.13;5035228;28;47214;-74
2023/01/20 16:43:41;;;;;;;;;61.75;45.50;;;;;27.45;34.06;101620.97;5047731;28;45528;-77
2023/01/20 16:46:28;;;;;;;;;68.75;48.50;;;;;27.46;34.70;101625.41;5053797;28;45757;-72
2023/01/20 16:48:58;;;;;;;;;64.75;48.50;;;;;27.45;33.90;101626.41;5036326;28;45607;-88
2023/01/20 16:51:25;;;;;;;;;65.25;48.00;;;;;27.37;33.73;101624.56;5050119;28;46755;-77
2023/01/20 16:53:51;;;;;;;;;62.50;44.00;;;;;27.25;33.98;101632.25;5053060;28;45558;-82
2023/01/20 16:56:20;;;;;;;;;63.25;43.25;;;;;27.13;33.77;101633.63;5054372;28;45792;-76
2023/01/20 16:58:47;;;;;;;;;61.25;43.25;;;;;26.98;34.02;101636.19;5044146;28;45783;-81
2023/01/20 17:01:12;;;;;;;;;60.00;46.00;;;;;26.84;33.56;101630.34;5050292;28;45584;-80
2023/01/20 17:03:39;;;;;;;;;60.00;44.50;;;;;26.77;34.20;101640.25;5054238;28;45381;-79
2023/01/20 17:06:13;;;;;;;;;64.50;45.50;;;;;26.66;34.10;101634.09;5042956;28;45434;-83
2023/01/20 17:08:42;;;;;;;;;69.00;47.00;;;;;26.61;33.46;101638.34;5053343;28;45353;-77
2023/01/20 17:11:07;;;;;;;;;57.75;44.00;;;;;26.53;33.94;101633.75;5054822;28;46629;-90
2023/01/20 17:13:33;;;;;;;;;60.00;46.50;;;;;26.42;33.85;101635.78;5046423;28;45444;-80
2023/01/20 17:15:58;;;;;;;;;59.00;42.25;;;;;26.36;33.87;101636.41;5045539;28;45413;-85
2023/01/20 17:18:23;;;;;;;;;57.50;42.75;;;;;26.28;33.37;101644.56;5031687;28;45855;-78
2023/01/20 17:20:49;;;;;;;;;53.00;39.25;;;;;26.20;33.34;101648.09;5047308;28;46945;-72
2023/01/20 17:23:14;;;;;;;;;58.50;40.25;;;;;26.12;33.52;101648.88;5046001;28;45493;-76
2023/01/20 17:25:40;;;;;;;;;50.50;42.00;;;;;26.07;33.92;101653.13;5043887;28;45511;-77
2023/01/20 17:28:05;;;;;;;;;58.75;46.00;;;;;26.02;33.83;101653.63;5051537;28;45468;-78
2023/01/20 17:30:30;;;;;;;;;49.50;34.00;;;;;25.94;33.88;101650.88;5050300;28;55786;-75
2023/01/20 17:32:56;;;;;;;;;58.00;43.25;;;;;25.90;33.55;101647.63;5046011;28;51667;-74
2023/01/20 17:35:21;;;;;;;;;56.25;41.00;;;;;25.84;34.20;101640.13;5044115;28;45480;-76
2023/01/20 17:37:46;;;;;;;;;50.25;37.75;;;;;25.82;33.75;101650.31;5052448;28;45587;-78
2023/01/20 17:40:12;;;;;;;;;35.75;19.75;;;;;25.78;33.49;101647.03;5032638;28;47316;-76
2023/01/20 17:42:37;;;;;;;;;51.75;40.75;;;;;25.77;34.39;101642.63;5036223;28;45484;-76
2023/01/20 17:45:03;;;;;;;;;50.50;37.50;;;;;25.76;33.45;101652.63;5033711;28;45362;-81
2023/01/20 17:47:29;;;;;;;;;53.00;39.25;;;;;25.76;33.82;101652.63;5035662;28;45273;-81
2023/01/20 17:49:54;;;;;;;;;52.50;40.00;;;;;25.77;33.88;101662.53;5051241;28;45438;-78
2023/01/20 17:52:21;;;;;;;;;48.25;39.00;;;;;25.82;34.19;101651.16;5052796;28;45293;-79
2023/01/20 17:54:47;;;;;;;;;46.50;35.25;;;;;25.86;33.68;101657.09;5044622;28;45720;-79
2023/01/20 17:57:12;;;;;;;;;39.50;33.75;;;;;25.92;33.91;101659.19;5048616;28;45563;-79
2023/01/20 17:59:38;;;;;;;;;50.75;37.50;;;;;25.96;33.68;101663.31;5043958;28;45475;-76
2023/01/20 18:02:04;;;;;;;;;53.00;38.25;;;;;26.01;34.24;101669.09;5052653;28;47005;-77
2023/01/20 18:04:29;;;;;;;;;46.00;34.50;;;;;26.04;33.95;101657.88;5048551;28;45471;-74
2023/01/20 18:06:55;;;;;;;;;43.75;33.75;;;;;26.15;34.24;101664.03;5053854;28;45553;-74
2023/01/20 18:09:20;;;;;;;;;49.00;36.50;;;;;26.23;34.32;101663.25;5051851;28;45574;-74
2023/01/20 18:11:45;;;;;;;;;43.50;34.25;;;;;26.30;33.97;101669.75;5051139;28;45528;-76
2023/01/20 18:14:11;;;;;;;;;47.75;36.00;;;;;26.30;33.59;101656.13;5034636;28;45418;-76
2023/01/20 18:16:40;;;;;;;;;46.50;36.25;;;;;26.41;34.21;101658.53;5041690;28;46532;-78
2023/01/20 18:19:06;;;;;;;;;43.75;35.25;;;;;26.46;33.44;101665.34;5051177;28;46051;-78
2023/01/20 18:21:36;;;;;;;;;39.75;34.75;;;;;26.48;34.33;101669.63;5028056;28;45624;-78
2023/01/20 18:24:04;;;;;;;;;41.25;32.50;;;;;26.54;33.76;101665.38;5052993;28;45532;-79
2023/01/20 18:26:32;;;;;;;;;42.50;33.00;;;;;26.53;33.56;101667.25;5051467;28;45368;-78
2023/01/20 18:29:00;;;;;;;;;46.25;33.50;;;;;26.55;34.36;101667.06;5052625;28;45841;-78
